Foret D'Eperlecques (62) - F

Date : 06/03/2022
Valeur du circuit : 5917125 point × seconde

Place Nom Licence Catégorie Club Temps CN à J-15 Valeur Points Différence Nouveau CN
1 SANCHEZ Gabriel 37655 H14 6008HF 0:27:42 2592 4307904 3560 +968 2884
2 PROUST Romane 38737 D14 6208HF 0:37:29 2026 4556474 2631 +605 2238
3 LAGNIER Maxime 39828 H14 6205HF 0:37:47 2483 5628961 2610 +127 2610
4 DUFEY Gabriel 31856 H14 6008HF 0:46:08 2768 7661824 2138 -630 2611
5 CLABAUX Emma 37103 D14 6208HF 0:47:30 1712 4879200 2076 +364 1804
6 MAVET Jules 33270 H14 0207HF 0:50:20 2429 7335580 1959 -470 2407
7 DESTREZ Habygaël 35311 D14 0207HF 0:53:22 2159 6913118 1848 -311 2227
8 DA NAZARE Laurence 38493 D50 5906HF 0:59:39 1653 0
9 BRONNEC Kristell 37230 D45 6008HF 1:00:39 2704 9839856 1626 -1078 2704
10 SANCHEZ Stephanie 39585 D45 6008HF 1:01:58 2891 10748738 1591 -1300 2891
11 DEWILDE Lydie 40654 D40 5907HF 1:02:28 1603 6008044 1579 -24 1595
12 GEERAERT Marie 40352 D40 5909HF 1:03:11 1399 5303609 1561 +162 1585
13 CYFFERS Morgane 39145 D40 5906HF 1:10:27 926 3914202 1400 +474 1084
14 BOUSSEMART Frédéric 38492 H45 5906HF 1:11:17 1383 0
15 FENZY Hélène 840873 D45 5906HF 1:20:18 804 3873672 1228 +424 985
16 DUFEY Sophie 35633 D50 6008HF 1:24:25 3166 1168 -1998 3166
17 SILVIE ELEONORE 42078 D14 6208HF 1:41:08 0 975 956
18 BLANDIN Maïté 36809 D40 5909HF 1:49:56 1429 897 -532 1464
19 FLAMENT Isabelle 41658 D40 5906HF 1:57:03 992 843 -129 1032
20 DEVIGNE Maxence 41653 H21 5906HF 1:57:40 2134 838 -1253 1486
21 DEMUYNCK Orane 39970 D21 5906HF 2:02:40 1537 804 -672 1148
22 BOUZIDI Farid 39600 H40 5909HF 2:17:09 1534 719 -815 1562
VERAY Lilou 38655 D14 6008HF pm 1104 0 1104